sensor_id;sensor_type;location;lat;lon;timestamp;pressure;altitude;pressure_sealevel;temperature
27826;BMP280;15077;49.704;9.908;2024-03-22T00:01:50;98824.03;;;14.56
27826;BMP280;15077;49.704;9.908;2024-03-22T00:04:16;98809.00;;;14.51
27826;BMP280;15077;49.704;9.908;2024-03-22T00:06:43;98809.28;;;14.45
27826;BMP280;15077;49.704;9.908;2024-03-22T00:09:10;98809.50;;;14.40
27826;BMP280;15077;49.704;9.908;2024-03-22T00:11:38;98809.84;;;14.33
27826;BMP280;15077;49.704;9.908;2024-03-22T00:14:05;98809.38;;;14.23
27826;BMP280;15077;49.704;9.908;2024-03-22T00:16:31;98805.53;;;14.15
27826;BMP280;15077;49.704;9.908;2024-03-22T00:18:58;98806.63;;;14.09
27826;BMP280;15077;49.704;9.908;2024-03-22T00:21:25;98800.03;;;14.04
27826;BMP280;15077;49.704;9.908;2024-03-22T00:23:51;98795.13;;;14.00
27826;BMP280;15077;49.704;9.908;2024-03-22T00:26:16;98791.81;;;13.98
27826;BMP280;15077;49.704;9.908;2024-03-22T00:28:42;98786.94;;;13.93
27826;BMP280;15077;49.704;9.908;2024-03-22T00:31:08;98783.69;;;13.90
27826;BMP280;15077;49.704;9.908;2024-03-22T00:33:35;98793.03;;;13.89
27826;BMP280;15077;49.704;9.908;2024-03-22T00:36:02;98783.81;;;13.87
27826;BMP280;15077;49.704;9.908;2024-03-22T00:38:29;98782.16;;;13.86
27826;BMP280;15077;49.704;9.908;2024-03-22T00:40:54;98768.59;;;13.85
27826;BMP280;15077;49.704;9.908;2024-03-22T00:43:21;98766.19;;;13.82
27826;BMP280;15077;49.704;9.908;2024-03-22T00:45:48;98767.94;;;13.80
27826;BMP280;15077;49.704;9.908;2024-03-22T00:48:19;98760.50;;;13.76
27826;BMP280;15077;49.704;9.908;2024-03-22T00:50:46;98762.44;;;13.71
27826;BMP280;15077;49.704;9.908;2024-03-22T00:53:12;98756.63;;;13.67
27826;BMP280;15077;49.704;9.908;2024-03-22T00:55:38;98750.84;;;13.64
27826;BMP280;15077;49.704;9.908;2024-03-22T00:58:03;98751.78;;;13.61
27826;BMP280;15077;49.704;9.908;2024-03-22T01:00:29;98748.63;;;13.57
27826;BMP280;15077;49.704;9.908;2024-03-22T01:02:55;98746.25;;;13.52
27826;BMP280;15077;49.704;9.908;2024-03-22T01:05:20;98744.03;;;13.45
27826;BMP280;15077;49.704;9.908;2024-03-22T01:07:46;98738.44;;;13.37
27826;BMP280;15077;49.704;9.908;2024-03-22T01:10:12;98736.19;;;13.29
27826;BMP280;15077;49.704;9.908;2024-03-22T01:12:38;98740.66;;;13.24
27826;BMP280;15077;49.704;9.908;2024-03-22T01:15:06;98736.50;;;13.22
27826;BMP280;15077;49.704;9.908;2024-03-22T01:17:32;98729.84;;;13.19
27826;BMP280;15077;49.704;9.908;2024-03-22T01:19:58;98732.44;;;13.18
27826;BMP280;15077;49.704;9.908;2024-03-22T01:22:24;98729.13;;;13.16
27826;BMP280;15077;49.704;9.908;2024-03-22T01:24:49;98725.06;;;13.12
27826;BMP280;15077;49.704;9.908;2024-03-22T01:27:15;98715.00;;;13.09
27826;BMP280;15077;49.704;9.908;2024-03-22T01:29:41;98717.63;;;13.08
27826;BMP280;15077;49.704;9.908;2024-03-22T01:32:06;98717.63;;;13.08
27826;BMP280;15077;49.704;9.908;2024-03-22T01:34:32;98712.53;;;13.08
27826;BMP280;15077;49.704;9.908;2024-03-22T01:36:58;98715.13;;;13.06
27826;BMP280;15077;49.704;9.908;2024-03-22T01:39:24;98712.66;;;13.05
27826;BMP280;15077;49.704;9.908;2024-03-22T01:41:52;98704.28;;;13.01
27826;BMP280;15077;49.704;9.908;2024-03-22T01:44:18;98700.09;;;13.00
27826;BMP280;15077;49.704;9.908;2024-03-22T01:46:44;98699.25;;;13.00
27826;BMP280;15077;49.704;9.908;2024-03-22T01:49:15;98693.22;;;13.02
27826;BMP280;15077;49.704;9.908;2024-03-22T01:51:42;98697.44;;;13.03
27826;BMP280;15077;49.704;9.908;2024-03-22T01:54:11;98691.44;;;13.04
27826;BMP280;15077;49.704;9.908;2024-03-22T01:56:37;98690.56;;;13.05
27826;BMP280;15077;49.704;9.908;2024-03-22T01:59:07;98691.44;;;13.04
27826;BMP280;15077;49.704;9.908;2024-03-22T02:01:33;98683.81;;;13.04
27826;BMP280;15077;49.704;9.908;2024-03-22T02:03:59;98680.50;;;13.02
27826;BMP280;15077;49.704;9.908;2024-03-22T02:06:25;98679.75;;;13.00
27826;BMP280;15077;49.704;9.908;2024-03-22T02:08:51;98683.19;;;12.99
27826;BMP280;15077;49.704;9.908;2024-03-22T02:11:17;98679.03;;;12.97
27826;BMP280;15077;49.704;9.908;2024-03-22T02:13:44;98682.50;;;12.96
27826;BMP280;15077;49.704;9.908;2024-03-22T02:16:10;98673.25;;;12.93
27826;BMP280;15077;49.704;9.908;2024-03-22T02:18:36;98675.97;;;12.89
27826;BMP280;15077;49.704;9.908;2024-03-22T02:21:02;98670.94;;;12.87
27826;BMP280;15077;49.704;9.908;2024-03-22T02:23:32;98669.97;;;12.90
27826;BMP280;15077;49.704;9.908;2024-03-22T02:25:59;98667.44;;;12.90
27826;BMP280;15077;49.704;9.908;2024-03-22T02:28:25;98657.38;;;12.87
27826;BMP280;15077;49.704;9.908;2024-03-22T02:30:51;98652.44;;;12.82
27826;BMP280;15077;49.704;9.908;2024-03-22T02:33:17;98662.81;;;12.78
27826;BMP280;15077;49.704;9.908;2024-03-22T02:35:42;98657.16;;;12.71
27826;BMP280;15077;49.704;9.908;2024-03-22T02:38:08;98656.47;;;12.68
27826;BMP280;15077;49.704;9.908;2024-03-22T02:40:34;98650.66;;;12.64
27826;BMP280;15077;49.704;9.908;2024-03-22T02:43:00;98652.38;;;12.64
27826;BMP280;15077;49.704;9.908;2024-03-22T02:45:25;98650.66;;;12.64
27826;BMP280;15077;49.704;9.908;2024-03-22T02:47:51;98652.31;;;12.65
27826;BMP280;15077;49.704;9.908;2024-03-22T02:50:16;98648.91;;;12.66
27826;BMP280;15077;49.704;9.908;2024-03-22T02:52:42;98642.16;;;12.65
27826;BMP280;15077;49.704;9.908;2024-03-22T02:55:08;98638.84;;;12.63
27826;BMP280;15077;49.704;9.908;2024-03-22T02:57:33;98644.06;;;12.60
27826;BMP280;15077;49.704;9.908;2024-03-22T03:00:02;98638.25;;;12.57
27826;BMP280;15077;49.704;9.908;2024-03-22T03:02:29;98642.44;;;12.58
27826;BMP280;15077;49.704;9.908;2024-03-22T03:04:54;98641.69;;;12.56
27826;BMP280;15077;49.704;9.908;2024-03-22T03:07:20;98635.81;;;12.54
27826;BMP280;15077;49.704;9.908;2024-03-22T03:09:45;98633.41;;;12.51
27826;BMP280;15077;49.704;9.908;2024-03-22T03:12:11;98636.13;;;12.47
27826;BMP280;15077;49.704;9.908;2024-03-22T03:14:36;98637.91;;;12.45
27826;BMP280;15077;49.704;9.908;2024-03-22T03:17:02;98633.63;;;12.45
27826;BMP280;15077;49.704;9.908;2024-03-22T03:19:28;98636.91;;;12.49
27826;BMP280;15077;49.704;9.908;2024-03-22T03:21:54;98631.72;;;12.52
27826;BMP280;15077;49.704;9.908;2024-03-22T03:24:20;98637.53;;;12.54
27826;BMP280;15077;49.704;9.908;2024-03-22T03:26:45;98638.38;;;12.54
27826;BMP280;15077;49.704;9.908;2024-03-22T03:29:11;98630.78;;;12.53
27826;BMP280;15077;49.704;9.908;2024-03-22T03:31:36;98636.00;;;12.50
27826;BMP280;15077;49.704;9.908;2024-03-22T03:34:02;98632.72;;;12.48
27826;BMP280;15077;49.704;9.908;2024-03-22T03:36:28;98637.09;;;12.44
27826;BMP280;15077;49.704;9.908;2024-03-22T03:38:54;98632.88;;;12.43
27826;BMP280;15077;49.704;9.908;2024-03-22T03:41:19;98626.19;;;12.41
27826;BMP280;15077;49.704;9.908;2024-03-22T03:43:45;98625.50;;;12.37
27826;BMP280;15077;49.704;9.908;2024-03-22T03:46:10;98621.47;;;12.32
27826;BMP280;15077;49.704;9.908;2024-03-22T03:48:36;98629.97;;;12.31
27826;BMP280;15077;49.704;9.908;2024-03-22T03:51:01;98637.59;;;12.31
27826;BMP280;15077;49.704;9.908;2024-03-22T03:53:31;98637.59;;;12.31
27826;BMP280;15077;49.704;9.908;2024-03-22T03:55:57;98635.97;;;12.30
27826;BMP280;15077;49.704;9.908;2024-03-22T03:58:23;98637.66;;;12.29
27826;BMP280;15077;49.704;9.908;2024-03-22T04:00:48;98639.38;;;12.29
27826;BMP280;15077;49.704;9.908;2024-03-22T04:03:14;98641.06;;;12.30
27826;BMP280;15077;49.704;9.908;2024-03-22T04:05:39;98637.59;;;12.31
27826;BMP280;15077;49.704;9.908;2024-03-22T04:08:05;98643.59;;;12.30
27826;BMP280;15077;49.704;9.908;2024-03-22T04:10:39;98635.31;;;12.25
27826;BMP280;15077;49.704;9.908;2024-03-22T04:13:04;98637.13;;;12.21
27826;BMP280;15077;49.704;9.908;2024-03-22T04:15:34;98631.41;;;12.16
27826;BMP280;15077;49.704;9.908;2024-03-22T04:17:59;98629.13;;;12.11
27826;BMP280;15077;49.704;9.908;2024-03-22T04:20:25;98619.13;;;12.06
27826;BMP280;15077;49.704;9.908;2024-03-22T04:22:51;98625.09;;;12.05
27826;BMP280;15077;49.704;9.908;2024-03-22T04:25:18;98623.41;;;12.04
27826;BMP280;15077;49.704;9.908;2024-03-22T04:27:43;98625.16;;;12.04
27826;BMP280;15077;49.704;9.908;2024-03-22T04:30:09;98622.53;;;12.05
27826;BMP280;15077;49.704;9.908;2024-03-22T04:32:35;98618.28;;;12.06
27826;BMP280;15077;49.704;9.908;2024-03-22T04:35:02;98619.94;;;12.07
27826;BMP280;15077;49.704;9.908;2024-03-22T04:37:28;98624.09;;;12.09
27826;BMP280;15077;49.704;9.908;2024-03-22T04:39:53;98613.94;;;12.09
27826;BMP280;15077;49.704;9.908;2024-03-22T04:42:19;98613.75;;;12.13
27826;BMP280;15077;49.704;9.908;2024-03-22T04:44:45;98624.66;;;12.15
27826;BMP280;15077;49.704;9.908;2024-03-22T04:47:10;98623.75;;;12.18
27826;BMP280;15077;49.704;9.908;2024-03-22T04:49:36;98616.81;;;12.21
27826;BMP280;15077;49.704;9.908;2024-03-22T04:52:02;98613.44;;;12.21
27826;BMP280;15077;49.704;9.908;2024-03-22T04:54:27;98621.94;;;12.20
27826;BMP280;15077;49.704;9.908;2024-03-22T04:56:53;98616.13;;;12.18
27826;BMP280;15077;49.704;9.908;2024-03-22T04:59:18;98611.16;;;12.15
27826;BMP280;15077;49.704;9.908;2024-03-22T05:01:44;98607.94;;;12.10
27826;BMP280;15077;49.704;9.908;2024-03-22T05:04:10;98604.88;;;12.02
27826;BMP280;15077;49.704;9.908;2024-03-22T05:06:35;98603.44;;;11.95
27826;BMP280;15077;49.704;9.908;2024-03-22T05:09:01;98603.63;;;11.91
27826;BMP280;15077;49.704;9.908;2024-03-22T05:11:26;98600.44;;;11.86
27826;BMP280;15077;49.704;9.908;2024-03-22T05:13:52;98598.94;;;11.80
27826;BMP280;15077;49.704;9.908;2024-03-22T05:16:18;98596.63;;;11.74
27826;BMP280;15077;49.704;9.908;2024-03-22T05:18:43;98594.31;;;11.68
27826;BMP280;15077;49.704;9.908;2024-03-22T05:21:09;98584.34;;;11.64
27826;BMP280;15077;49.704;9.908;2024-03-22T05:23:34;98574.28;;;11.61
27826;BMP280;15077;49.704;9.908;2024-03-22T05:26:00;98580.25;;;11.60
27826;BMP280;15077;49.704;9.908;2024-03-22T05:28:26;98576.13;;;11.58
27826;BMP280;15077;49.704;9.908;2024-03-22T05:30:51;98574.47;;;11.57
27826;BMP280;15077;49.704;9.908;2024-03-22T05:33:17;98577.00;;;11.57
27826;BMP280;15077;49.704;9.908;2024-03-22T05:35:43;98575.38;;;11.54
27826;BMP280;15077;49.704;9.908;2024-03-22T05:38:08;98588.16;;;11.53
27826;BMP280;15077;49.704;9.908;2024-03-22T05:40:36;98583.19;;;11.50
27826;BMP280;15077;49.704;9.908;2024-03-22T05:43:04;98589.13;;;11.49
27826;BMP280;15077;49.704;9.908;2024-03-22T05:45:29;98581.50;;;11.49
27826;BMP280;15077;49.704;9.908;2024-03-22T05:47:55;98580.63;;;11.50
27826;BMP280;15077;49.704;9.908;2024-03-22T05:50:21;98578.03;;;11.51
27826;BMP280;15077;49.704;9.908;2024-03-22T05:52:47;98578.88;;;11.52
27826;BMP280;15077;49.704;9.908;2024-03-22T05:55:13;98578.88;;;11.52
27826;BMP280;15077;49.704;9.908;2024-03-22T05:57:38;98572.09;;;11.52
27826;BMP280;15077;49.704;9.908;2024-03-22T06:00:05;98564.47;;;11.52
27826;BMP280;15077;49.704;9.908;2024-03-22T06:02:32;98565.28;;;11.53
27826;BMP280;15077;49.704;9.908;2024-03-22T06:04:58;98557.75;;;11.51
27826;BMP280;15077;49.704;9.908;2024-03-22T06:07:24;98557.75;;;11.51
27826;BMP280;15077;49.704;9.908;2024-03-22T06:09:51;98557.78;;;11.50
27826;BMP280;15077;49.704;9.908;2024-03-22T06:12:18;98560.34;;;11.50
27826;BMP280;15077;49.704;9.908;2024-03-22T06:14:44;98556.91;;;11.51
27826;BMP280;15077;49.704;9.908;2024-03-22T06:17:11;98554.28;;;11.54
27826;BMP280;15077;49.704;9.908;2024-03-22T06:19:37;98557.50;;;11.57
27826;BMP280;15077;49.704;9.908;2024-03-22T06:22:03;98558.34;;;11.58
27826;BMP280;15077;49.704;9.908;2024-03-22T06:24:29;98558.25;;;11.61
27826;BMP280;15077;49.704;9.908;2024-03-22T06:26:55;98555.53;;;11.65
27826;BMP280;15077;49.704;9.908;2024-03-22T06:29:20;98550.28;;;11.69
27826;BMP280;15077;49.704;9.908;2024-03-22T06:31:46;98546.78;;;11.72
27826;BMP280;15077;49.704;9.908;2024-03-22T06:34:12;98540.75;;;11.74
27826;BMP280;15077;49.704;9.908;2024-03-22T06:36:38;98538.97;;;11.76
27826;BMP280;15077;49.704;9.908;2024-03-22T06:39:04;98531.25;;;11.79
27826;BMP280;15077;49.704;9.908;2024-03-22T06:41:32;98523.44;;;11.84
27826;BMP280;15077;49.704;9.908;2024-03-22T06:43:58;98539.34;;;11.89
27826;BMP280;15077;49.704;9.908;2024-03-22T06:46:24;98538.38;;;11.91
27826;BMP280;15077;49.704;9.908;2024-03-22T06:48:50;98532.38;;;11.94
27826;BMP280;15077;49.704;9.908;2024-03-22T06:51:16;98532.31;;;11.95
27826;BMP280;15077;49.704;9.908;2024-03-22T06:53:42;98530.50;;;11.99
27826;BMP280;15077;49.704;9.908;2024-03-22T06:56:07;98527.91;;;12.00
27826;BMP280;15077;49.704;9.908;2024-03-22T06:58:38;98526.13;;;12.02
27826;BMP280;15077;49.704;9.908;2024-03-22T07:01:04;98529.41;;;12.04
27826;BMP280;15077;49.704;9.908;2024-03-22T07:03:30;98526.00;;;12.05
27826;BMP280;15077;49.704;9.908;2024-03-22T07:05:56;98529.28;;;12.07
27826;BMP280;15077;49.704;9.908;2024-03-22T07:08:26;98523.34;;;12.08
27826;BMP280;15077;49.704;9.908;2024-03-22T07:10:52;98514.84;;;12.09
27826;BMP280;15077;49.704;9.908;2024-03-22T07:13:23;98524.88;;;12.12
27826;BMP280;15077;49.704;9.908;2024-03-22T07:15:48;98515.41;;;12.15
27826;BMP280;15077;49.704;9.908;2024-03-22T07:18:14;98522.72;;;12.23
27826;BMP280;15077;49.704;9.908;2024-03-22T07:20:45;98516.50;;;12.30
27826;BMP280;15077;49.704;9.908;2024-03-22T07:23:10;98523.88;;;12.36
27826;BMP280;15077;49.704;9.908;2024-03-22T07:25:36;98512.53;;;12.44
27826;BMP280;15077;49.704;9.908;2024-03-22T07:28:02;98507.13;;;12.52
27826;BMP280;15077;49.704;9.908;2024-03-22T07:30:27;98502.53;;;12.59
27826;BMP280;15077;49.704;9.908;2024-03-22T07:32:53;98502.19;;;12.67
27826;BMP280;15077;49.704;9.908;2024-03-22T07:35:19;98509.50;;;12.74
27826;BMP280;15077;49.704;9.908;2024-03-22T07:37:44;98513.44;;;12.81
27826;BMP280;15077;49.704;9.908;2024-03-22T07:40:10;98513.16;;;12.89
27826;BMP280;15077;49.704;9.908;2024-03-22T07:42:36;98502.66;;;12.96
27826;BMP280;15077;49.704;9.908;2024-03-22T07:45:02;98504.78;;;13.05
27826;BMP280;15077;49.704;9.908;2024-03-22T07:47:27;98506.88;;;13.15
27826;BMP280;15077;49.704;9.908;2024-03-22T07:49:53;98509.81;;;13.25
27826;BMP280;15077;49.704;9.908;2024-03-22T07:52:19;98503.41;;;13.35
27826;BMP280;15077;49.704;9.908;2024-03-22T07:54:44;98502.88;;;13.47
27826;BMP280;15077;49.704;9.908;2024-03-22T07:57:10;98500.69;;;13.57
27826;BMP280;15077;49.704;9.908;2024-03-22T07:59:36;98495.75;;;13.71
27826;BMP280;15077;49.704;9.908;2024-03-22T08:02:02;98500.28;;;13.83
27826;BMP280;15077;49.704;9.908;2024-03-22T08:04:29;98498.81;;;13.96
27826;BMP280;15077;49.704;9.908;2024-03-22T08:06:54;98497.22;;;14.12
27826;BMP280;15077;49.704;9.908;2024-03-22T08:09:20;98508.31;;;14.28
27826;BMP280;15077;49.704;9.908;2024-03-22T08:11:46;98508.31;;;14.45
27826;BMP280;15077;49.704;9.908;2024-03-22T08:14:12;98505.91;;;14.58
27826;BMP280;15077;49.704;9.908;2024-03-22T08:16:37;98505.13;;;14.73
27826;BMP280;15077;49.704;9.908;2024-03-22T08:19:03;98499.28;;;14.88
27826;BMP280;15077;49.704;9.908;2024-03-22T08:21:28;98491.22;;;14.96
27826;BMP280;15077;49.704;9.908;2024-03-22T08:23:54;98494.34;;;15.01
27826;BMP280;15077;49.704;9.908;2024-03-22T08:26:20;98494.03;;;15.06
27826;BMP280;15077;49.704;9.908;2024-03-22T08:28:47;98492.91;;;15.12
27826;BMP280;15077;49.704;9.908;2024-03-22T08:31:13;98484.97;;;15.18
27826;BMP280;15077;49.704;9.908;2024-03-22T08:33:39;98480.25;;;15.26
27826;BMP280;15077;49.704;9.908;2024-03-22T08:36:05;98481.59;;;15.33
27826;BMP280;15077;49.704;9.908;2024-03-22T08:38:30;98476.00;;;15.42
27826;BMP280;15077;49.704;9.908;2024-03-22T08:40:56;98477.16;;;15.52
27826;BMP280;15077;49.704;9.908;2024-03-22T08:43:21;98471.53;;;15.60
27826;BMP280;15077;49.704;9.908;2024-03-22T08:45:48;98470.88;;;15.72
27826;BMP280;15077;49.704;9.908;2024-03-22T08:48:14;98467.63;;;15.84
27826;BMP280;15077;49.704;9.908;2024-03-22T08:50:42;98464.31;;;15.98
27826;BMP280;15077;49.704;9.908;2024-03-22T08:53:08;98464.34;;;16.11
27826;BMP280;15077;49.704;9.908;2024-03-22T08:55:33;98457.56;;;16.26
27826;BMP280;15077;49.704;9.908;2024-03-22T08:57:59;98453.41;;;16.39
27826;BMP280;15077;49.704;9.908;2024-03-22T09:00:25;98453.50;;;16.51
27826;BMP280;15077;49.704;9.908;2024-03-22T09:02:50;98448.50;;;16.63
27826;BMP280;15077;49.704;9.908;2024-03-22T09:05:16;98441.09;;;16.73
27826;BMP280;15077;49.704;9.908;2024-03-22T09:07:42;98441.41;;;16.82
27826;BMP280;15077;49.704;9.908;2024-03-22T09:10:08;98442.38;;;16.94
27826;BMP280;15077;49.704;9.908;2024-03-22T09:12:34;98442.84;;;17.00
27826;BMP280;15077;49.704;9.908;2024-03-22T09:15:00;98431.22;;;17.08
27826;BMP280;15077;49.704;9.908;2024-03-22T09:17:27;98430.75;;;17.16
27826;BMP280;15077;49.704;9.908;2024-03-22T09:19:52;98424.34;;;17.23
27826;BMP280;15077;49.704;9.908;2024-03-22T09:22:18;98422.97;;;17.31
27826;BMP280;15077;49.704;9.908;2024-03-22T09:24:44;98419.13;;;17.38
27826;BMP280;15077;49.704;9.908;2024-03-22T09:27:09;98420.28;;;17.47
27826;BMP280;15077;49.704;9.908;2024-03-22T09:29:38;98420.44;;;17.57
27826;BMP280;15077;49.704;9.908;2024-03-22T09:32:04;98407.75;;;17.68
27826;BMP280;15077;49.704;9.908;2024-03-22T09:34:30;98412.19;;;17.79
27826;BMP280;15077;49.704;9.908;2024-03-22T09:36:57;98402.09;;;17.90
27826;BMP280;15077;49.704;9.908;2024-03-22T09:39:22;98396.16;;;18.01
27826;BMP280;15077;49.704;9.908;2024-03-22T09:41:50;98394.53;;;18.13
27826;BMP280;15077;49.704;9.908;2024-03-22T09:44:18;98388.63;;;18.25
27826;BMP280;15077;49.704;9.908;2024-03-22T09:46:46;98389.63;;;18.35
27826;BMP280;15077;49.704;9.908;2024-03-22T09:49:13;98374.47;;;18.44
27826;BMP280;15077;49.704;9.908;2024-03-22T09:51:43;98371.88;;;18.56
27826;BMP280;15077;49.704;9.908;2024-03-22T09:54:10;98366.00;;;18.67
27826;BMP280;15077;49.704;9.908;2024-03-22T09:56:38;98358.41;;;18.78
27826;BMP280;15077;49.704;9.908;2024-03-22T09:59:04;98360.25;;;18.88
27826;BMP280;15077;49.704;9.908;2024-03-22T10:01:30;98349.31;;;18.97
27826;BMP280;15077;49.704;9.908;2024-03-22T10:03:57;98352.94;;;19.07
27826;BMP280;15077;49.704;9.908;2024-03-22T10:06:22;98347.16;;;19.16
27826;BMP280;15077;49.704;9.908;2024-03-22T10:08:48;98349.97;;;19.24
27826;BMP280;15077;49.704;9.908;2024-03-22T10:11:14;98344.41;;;19.30
27826;BMP280;15077;49.704;9.908;2024-03-22T10:13:39;98346.44;;;19.37
27826;BMP280;15077;49.704;9.908;2024-03-22T10:16:05;98342.59;;;19.43
27826;BMP280;15077;49.704;9.908;2024-03-22T10:18:34;98343.81;;;19.49
27826;BMP280;15077;49.704;9.908;2024-03-22T10:21:01;98337.50;;;19.53
27826;BMP280;15077;49.704;9.908;2024-03-22T10:23:27;98346.63;;;19.57
27826;BMP280;15077;49.704;9.908;2024-03-22T10:25:53;98340.59;;;19.58
27826;BMP280;15077;49.704;9.908;2024-03-22T10:28:19;98337.78;;;19.61
27826;BMP280;15077;49.704;9.908;2024-03-22T10:30:47;98335.09;;;19.63
27826;BMP280;15077;49.704;9.908;2024-03-22T10:33:15;98330.53;;;19.66
27826;BMP280;15077;49.704;9.908;2024-03-22T10:35:43;98327.88;;;19.68
27826;BMP280;15077;49.704;9.908;2024-03-22T10:38:11;98330.31;;;19.69
27826;BMP280;15077;49.704;9.908;2024-03-22T10:40:44;98315.69;;;19.70
27826;BMP280;15077;49.704;9.908;2024-03-22T10:43:10;98328.22;;;19.74
27826;BMP280;15077;49.704;9.908;2024-03-22T10:45:37;98310.09;;;19.76
27826;BMP280;15077;49.704;9.908;2024-03-22T10:48:10;98315.13;;;19.77
27826;BMP280;15077;49.704;9.908;2024-03-22T10:50:40;98306.38;;;19.80
27826;BMP280;15077;49.704;9.908;2024-03-22T10:53:18;98312.97;;;19.84
27826;BMP280;15077;49.704;9.908;2024-03-22T10:55:47;98299.97;;;19.85
27826;BMP280;15077;49.704;9.908;2024-03-22T10:58:17;98296.59;;;19.85
27826;BMP280;15077;49.704;9.908;2024-03-22T11:00:43;98296.41;;;19.88
27826;BMP280;15077;49.704;9.908;2024-03-22T11:03:10;98301.44;;;19.89
27826;BMP280;15077;49.704;9.908;2024-03-22T11:05:48;98287.63;;;19.90
27826;BMP280;15077;49.704;9.908;2024-03-22T11:08:23;98291.84;;;19.91
27826;BMP280;15077;49.704;9.908;2024-03-22T11:10:49;98281.44;;;19.93
27826;BMP280;15077;49.704;9.908;2024-03-22T11:13:17;98284.59;;;19.96
27826;BMP280;15077;49.704;9.908;2024-03-22T11:15:43;98278.06;;;20.03
27826;BMP280;15077;49.704;9.908;2024-03-22T11:18:09;98267.06;;;20.12
27826;BMP280;15077;49.704;9.908;2024-03-22T11:20:38;98269.19;;;20.18
27826;BMP280;15077;49.704;9.908;2024-03-22T11:23:04;98254.19;;;20.23
27826;BMP280;15077;49.704;9.908;2024-03-22T11:25:33;98253.03;;;20.27
27826;BMP280;15077;49.704;9.908;2024-03-22T11:28:00;98246.03;;;20.29
27826;BMP280;15077;49.704;9.908;2024-03-22T11:30:33;98237.34;;;20.30
27826;BMP280;15077;49.704;9.908;2024-03-22T11:33:02;98233.63;;;20.34
27826;BMP280;15077;49.704;9.908;2024-03-22T11:35:28;98222.38;;;20.35
27826;BMP280;15077;49.704;9.908;2024-03-22T11:37:54;98218.06;;;20.35
27826;BMP280;15077;49.704;9.908;2024-03-22T11:40:22;98218.63;;;20.39
27826;BMP280;15077;49.704;9.908;2024-03-22T11:42:50;98217.00;;;20.38
27826;BMP280;15077;49.704;9.908;2024-03-22T11:45:17;98215.13;;;20.40
27826;BMP280;15077;49.704;9.908;2024-03-22T11:47:47;98210.53;;;20.43
27826;BMP280;15077;49.704;9.908;2024-03-22T11:50:16;98206.78;;;20.47
27826;BMP280;15077;49.704;9.908;2024-03-22T11:52:42;98200.47;;;20.51
27826;BMP280;15077;49.704;9.908;2024-03-22T11:55:10;98202.81;;;20.54
27826;BMP280;15077;49.704;9.908;2024-03-22T11:57:36;98195.66;;;20.57
27826;BMP280;15077;49.704;9.908;2024-03-22T12:00:03;98191.19;;;20.59
27826;BMP280;15077;49.704;9.908;2024-03-22T12:02:31;98193.75;;;20.59
27826;BMP280;15077;49.704;9.908;2024-03-22T12:04:57;98180.19;;;20.57
27826;BMP280;15077;49.704;9.908;2024-03-22T12:07:23;98177.63;;;20.57
27826;BMP280;15077;49.704;9.908;2024-03-22T12:09:49;98174.25;;;20.57
27826;BMP280;15077;49.704;9.908;2024-03-22T12:12:14;98164.75;;;20.57
27826;BMP280;15077;49.704;9.908;2024-03-22T12:14:40;98163.81;;;20.58
27826;BMP280;15077;49.704;9.908;2024-03-22T12:17:06;98160.16;;;20.61
27826;BMP280;15077;49.704;9.908;2024-03-22T12:19:32;98154.91;;;20.62
27826;BMP280;15077;49.704;9.908;2024-03-22T12:21:59;98159.91;;;20.64
27826;BMP280;15077;49.704;9.908;2024-03-22T12:24:25;98155.50;;;20.66
27826;BMP280;15077;49.704;9.908;2024-03-22T12:26:50;98157.94;;;20.67
27826;BMP280;15077;49.704;9.908;2024-03-22T12:29:17;98139.06;;;20.67
27826;BMP280;15077;49.704;9.908;2024-03-22T12:31:43;98140.75;;;20.68
27826;BMP280;15077;49.704;9.908;2024-03-22T12:34:08;98148.22;;;20.71
27826;BMP280;15077;49.704;9.908;2024-03-22T12:36:34;98142.72;;;20.75
27826;BMP280;15077;49.704;9.908;2024-03-22T12:39:00;98150.19;;;20.78
27826;BMP280;15077;49.704;9.908;2024-03-22T12:41:27;98144.13;;;20.79
27826;BMP280;15077;49.704;9.908;2024-03-22T12:43:54;98138.03;;;20.80
27826;BMP280;15077;49.704;9.908;2024-03-22T12:46:20;98139.41;;;20.84
27826;BMP280;15077;49.704;9.908;2024-03-22T12:48:46;98134.00;;;20.87
27826;BMP280;15077;49.704;9.908;2024-03-22T12:51:11;98134.72;;;20.89
27826;BMP280;15077;49.704;9.908;2024-03-22T12:53:37;98126.72;;;20.92
27826;BMP280;15077;49.704;9.908;2024-03-22T12:56:03;98130.81;;;20.94
27826;BMP280;15077;49.704;9.908;2024-03-22T12:58:30;98116.19;;;20.95
27826;BMP280;15077;49.704;9.908;2024-03-22T13:00:57;98122.13;;;20.95
27826;BMP280;15077;49.704;9.908;2024-03-22T13:03:22;98114.28;;;20.97
27826;BMP280;15077;49.704;9.908;2024-03-22T13:05:48;98105.63;;;20.98
27826;BMP280;15077;49.704;9.908;2024-03-22T13:08:14;98106.19;;;21.01
27826;BMP280;15077;49.704;9.908;2024-03-22T13:10:39;98106.97;;;21.02
27826;BMP280;15077;49.704;9.908;2024-03-22T13:13:09;98093.16;;;21.03
27826;BMP280;15077;49.704;9.908;2024-03-22T13:15:35;98096.44;;;21.05
27826;BMP280;15077;49.704;9.908;2024-03-22T13:18:02;98092.91;;;21.06
27826;BMP280;15077;49.704;9.908;2024-03-22T13:20:28;98089.53;;;21.05
27826;BMP280;15077;49.704;9.908;2024-03-22T13:22:55;98086.25;;;21.03
27826;BMP280;15077;49.704;9.908;2024-03-22T13:25:20;98082.84;;;21.03
27826;BMP280;15077;49.704;9.908;2024-03-22T13:27:46;98078.50;;;21.03
27826;BMP280;15077;49.704;9.908;2024-03-22T13:30:12;98078.38;;;21.05
27826;BMP280;15077;49.704;9.908;2024-03-22T13:32:38;98065.50;;;21.05
27826;BMP280;15077;49.704;9.908;2024-03-22T13:35:05;98071.50;;;21.05
27826;BMP280;15077;49.704;9.908;2024-03-22T13:37:31;98071.50;;;21.05
27826;BMP280;15077;49.704;9.908;2024-03-22T13:39:57;98069.03;;;21.04
27826;BMP280;15077;49.704;9.908;2024-03-22T13:42:23;98061.44;;;21.02
27826;BMP280;15077;49.704;9.908;2024-03-22T13:44:48;98060.84;;;20.99
27826;BMP280;15077;49.704;9.908;2024-03-22T13:47:14;98057.59;;;20.97
27826;BMP280;15077;49.704;9.908;2024-03-22T13:49:40;98059.50;;;20.95
27826;BMP280;15077;49.704;9.908;2024-03-22T13:52:07;98046.63;;;20.95
27826;BMP280;15077;49.704;9.908;2024-03-22T13:54:33;98044.97;;;20.94
27826;BMP280;15077;49.704;9.908;2024-03-22T13:56:58;98052.03;;;20.92
27826;BMP280;15077;49.704;9.908;2024-03-22T13:59:26;98037.75;;;20.88
27826;BMP280;15077;49.704;9.908;2024-03-22T14:01:52;98036.22;;;20.86
27826;BMP280;15077;49.704;9.908;2024-03-22T14:04:17;98033.78;;;20.84